Weather observations for the past three days for
Charlottesville-Albemarle Airport
Imperial (Metric)
Date Time (edt) Wind (mph) Vis. (mi.) Weather Sky Cond. Temperature (ºF) Relative Humidity Wind Chill (°F) Heat Index (°F) Pressure Precipitation (in)
Air Dwpt 6 hour altimeter (in) sea level (mb) 1 hr 3 hr 6 hr
Max. Min.
06 01:53 S 9 10.00 Fair CLR 63 48 75.9 61 58% 29.87 1010.6
06 00:53 S 8 10.00 Fair CLR 64.9 48 54% 29.87 1010.6
05 23:53 S 10 10.00 Fair CLR 64.9 46.9 52% 29.86 1010.6
05 22:53 S 13 10.00 Fair CLR 68 45 44% 29.87 1010.7
05 21:53 S 9 10.00 Fair CLR 66.9 44.1 44% 29.87 1010.8
05 20:53 SW 10 10.00 Fair CLR 71.1 44.1 38% 29.86 1010.4
05 19:53 SW 14 G 23 10.00 Fair CLR 75.9 42.1 82.9 75.9 30% 77 29.84 1009.9
05 18:53 SW 17 G 32 10.00 Light Rain CLR 78.1 41 27% 78 29.84 1009.8
05 17:53 SW 16 G 31 10.00 Light Rain CLR 79 37.9 23% 78 29.84 1009.9
05 16:53 S 23 G 32 10.00 Light Rain and Breezy CLR 80.1 35.1 20% 79 29.83 1009.7
05 15:53 SW 17 G 36 10.00 Light Rain CLR 82.9 39 21% 81 29.84 1009.8
05 14:53 SW 17 G 31 10.00 Light Rain CLR 82 37.9 21% 80 29.86 1010.5
05 13:53 SW 17 G 33 10.00 Light Rain CLR 82 42.1 82.9 59 24% 80 29.88 1011.1
05 12:53 S 14 G 23 10.00 Fair CLR 80.1 48 33% 79 29.89 1011.6
05 11:53 S 12 10.00 Fair CLR 78.1 48.9 36% 79 29.92 1012.4
05 10:53 S 13 10.00 Fair CLR 73.9 48.9 41% 29.92 1012.7
05 09:53 S 9 10.00 Fair CLR 70 46.9 44% 29.92 1012.7
05 08:53 S 7 10.00 Fair CLR 64 45 50% 29.93 1012.9
05 07:53 S 8 10.00 Fair CLR 59 44.1 59 51.1 58% 29.93 1013.1
05 06:53 S 8 10.00 Fair CLR 55.9 43 62% 29.92 1012.5
05 05:53 SW 7 10.00 Fair CLR 55.9 44.1 65% 29.91 1012.2
05 04:53 S 9 10.00 Fair CLR 55 45 69% 29.9 1011.9
05 03:53 S 6 10.00 Fair CLR 57 46 67% 29.89 1011.4
05 02:53 Calm 10.00 Fair CLR 54 48 80% 29.88 1011.3
05 01:53 W 3 10.00 Fair CLR 55.9 50 64 54 81% 29.87 1011.1
05 00:53 S 9 10.00 Fair CLR 57 48.9 74% 29.87 1011.1
04 23:53 SW 6 10.00 Fair CLR 59 50 72% 29.87 1010.8
04 22:53 SW 3 10.00 Fair CLR 59 53.1 81% 29.88 1011.3
04 21:53 Calm 10.00 Fair CLR 59 52 78% 29.89 1011.7
04 20:53 Calm 10.00 Mostly Cloudy BKN100 62.1 52 70% 29.87 1011.1
04 19:53 W 3 10.00 A Few Clouds FEW110 64 51.1 75.9 64 63% 29.86 1010.9
04 18:53 SW 12 10.00 Mostly Cloudy SCT080 BKN095 BKN110 73 44.1 35% 29.85 1010.6
04 17:53 S 9 G 22 10.00 Mostly Cloudy FEW090 BKN120 73.9 43 33% 29.84 1010.2
04 16:53 S 12 10.00 Fair CLR 75 44.1 33% 77 29.85 1010.3
04 15:53 SW 9 G 25 10.00 A Few Clouds FEW075 75.9 42.1 30% 77 29.86 1010.7
04 14:53 Calm 10.00 Fair CLR 73.9 42.1 32% 29.89 1011.7
04 13:53 SW 13 G 21 10.00 Fair CLR 73 39 73.9 52 29% 29.9 1012.2
04 12:53 SW 12 G 22 10.00 Fair CLR 72 37.9 29% 29.92 1012.9
04 11:53 S 9 10.00 Fair CLR 71.1 37.9 30% 29.94 1013.7
04 10:53 S 10 10.00 Fair CLR 66.9 36 32% 29.96 1014.2
04 09:53 Vrbl 7 10.00 Fair CLR 63 37 38% 29.96 1014.3
04 08:53 SW 3 10.00 Fair CLR 57.9 37.9 48% 29.98 1015.0
04 07:53 Calm 10.00 Fair CLR 53.1 39.9 53.1 43 61% 29.99 1015.3
04 06:53 Calm 10.00 Fair CLR 46.9 37 69% 29.99 1015.2
04 05:53 Calm 10.00 Fair CLR 46.9 36 66% 29.98 1014.9
04 04:53 Calm 10.00 Mostly Cloudy BKN100 46 37 71% 29.98 1015.1
04 03:53 Calm 10.00 Mostly Cloudy BKN110 46.9 36 66% 29.98 1015.1
04 02:53 Calm 10.00 Fair CLR 46.9 35.1 63% 29.98 1015.1
04 01:53 S 3 10.00 Overcast OVC100 48.9 36 60.1 46.9 61% 30 1015.6
04 00:53 Calm 10.00 Overcast OVC100 50 34 54% 29.99 1015.5
03 23:53 NW 3 10.00 Overcast OVC120 48.9 32 52% 29.98 1015.2
03 22:53 Calm 10.00 Fair CLR 53.1 30 41% 29.98 1015.1
03 21:53 Calm 10.00 Fair CLR 51.1 30.9 46% 29.97 1014.9
03 20:53 S 6 10.00 Fair CLR 53.1 28 38% 29.96 1014.4
03 19:53 S 3 10.00 Fair CLR 60.1 24.1 64.9 57.9 25% 29.95 1014.0
03 18:53 S 6 10.00 Fair CLR 63 24.1 23% 29.94 1013.8
03 17:53 SW 8 10.00 Fair CLR 64 21 19% 29.95 1013.9
03 16:53 Calm 10.00 Fair CLR 64.9 23 20% 29.96 1014.3
03 15:53 Calm 10.00 Fair CLR 63 21.9 21% 29.98 1015.1
03 14:53 SW 8 10.00 Fair CLR 61 23 23% 30.01 1015.9
03 13:53 Vrbl 5 10.00 Fair CLR 57.9 21.9 59 46 25% 30.03 1016.7
03 12:53 Vrbl 6 10.00 Fair CLR 57 23 27% 30.05 1017.4
03 11:53 NW 9 G 18 10.00 Fair CLR 54 21.9 29% 30.07 1018.1
03 10:53 NW 8 10.00 Fair CLR 53.1 23 31% 30.08 1018.4
03 09:53 NW 8 10.00 A Few Clouds FEW060 50 23 35% 47 30.08 1018.5
03 08:53 Vrbl 6 10.00 Fair CLR 48 25 41% 46 30.08 1018.4
03 07:53 Vrbl 5 10.00 Fair CLR 46.9 27 46.9 41 46% 45 30.07 1018.1
03 06:53 N 5 10.00 Overcast OVC060 45 28.9 54% 43 30.04 1017.2
03 05:53 NW 7 10.00 Mostly Cloudy BKN065 43 28.9 58% 39 30 1015.8
03 04:53 Calm 0.00 Mostly Cloudy BKN070 41 30.9 67% 29.99 1015.4
03 03:53 Calm 10.00 Fair CLR 43 30 60% 29.98 1015.0
03 02:53 NW 3 10.00 Fair CLR 44.1 30 58% 29.96 1014.4
Date Time (edt) Wind (mph) Vis. (mi.) Weather Sky Cond. Air Dwpt Max. Min. Relative Humidity Wind Chill (°F) Heat Index (°F) altimeter (in) sea level (mb) 1 hr 3 hr 6 hr
6 hour
Temperature (ºF) Pressure Precipitation (in)